Time;durP1;ratioP1;P1;durP2;ratioP2;P2;SDS_P1;SDS_P2;PMS_P1;PMS_P2;Temp;Humidity;BMP_temperature;BMP_pressure;BME280_temperature;BME280_humidity;BME280_pressure;Samples;Min_cycle;Max_cycle;Signal;HPM_P1;HPM_P2
2023/01/28 00:00:35;;;;;;;;;;;;;;;11.85;32.19;98507.84;5042884;28;20380;-83
2023/01/28 00:03:01;;;;;;;;;;;;;;;11.06;32.97;98513.66;5050170;28;19990;-83
2023/01/28 00:05:28;;;;;;;;;;;;;;;11.44;32.57;98502.44;5048585;28;20388;-83
2023/01/28 00:07:56;;;;;;;;;;;;;;;11.68;32.45;98513.53;5052259;28;20532;-83
2023/01/28 00:10:22;;;;;;;;;;;;;;;12.40;31.30;98505.31;5047116;28;19921;-83
2023/01/28 00:12:49;;;;;;;;;;;;;;;13.01;30.36;98503.22;5035387;28;19917;-83
2023/01/28 00:15:15;;;;;;;;;;;;;;;14.19;27.85;98491.41;5048005;28;20328;-83
2023/01/28 00:17:41;;;;;;;;;;;;;;;12.73;30.19;98505.16;5045247;28;19932;-83
2023/01/28 00:20:08;;;;;;;;;;;;;;;14.57;28.05;98497.06;5049701;28;19921;-83
2023/01/28 00:22:34;;;;;;;;;;;;;;;15.06;27.45;98497.34;5053632;28;19989;-83
2023/01/28 00:25:00;;;;;;;;;;;;;;;14.56;27.60;98498.25;5051343;28;20389;-83
2023/01/28 00:27:26;;;;;;;;;;;;;;;13.09;29.77;98496.00;5071039;28;19916;-83
2023/01/28 00:29:52;;;;;;;;;;;;;;;12.26;31.15;98507.63;5067073;28;19917;-83
2023/01/28 00:32:19;;;;;;;;;;;;;;;10.46;34.86;98518.78;5053344;28;20020;-83
2023/01/28 00:34:45;;;;;;;;;;;;;;;12.12;31.87;98507.16;5046182;28;19928;-83
2023/01/28 00:37:11;;;;;;;;;;;;;;;12.70;30.63;98511.34;5047727;28;19921;-83
2023/01/28 00:39:37;;;;;;;;;;;;;;;11.78;32.01;98511.13;5065499;28;19920;-83
2023/01/28 00:42:03;;;;;;;;;;;;;;;10.75;34.45;98516.00;5053196;28;19927;-83
2023/01/28 00:44:29;;;;;;;;;;;;;;;11.94;31.99;98511.28;5052768;28;20311;-83
2023/01/28 00:46:55;;;;;;;;;;;;;;;12.03;32.18;98514.72;5042360;28;19917;-83
2023/01/28 00:49:21;;;;;;;;;;;;;;;13.24;30.34;98513.72;5037808;28;19960;-83
2023/01/28 00:51:47;;;;;;;;;;;;;;;11.82;32.45;98522.28;5052347;28;20277;-83
2023/01/28 00:54:13;;;;;;;;;;;;;;;13.42;29.77;98520.56;5054402;28;19917;-83
2023/01/28 00:56:39;;;;;;;;;;;;;;;14.24;28.53;98513.22;5054394;28;19963;-83
2023/01/28 00:59:05;;;;;;;;;;;;;;;11.43;33.00;98523.66;5053589;28;19928;-83
2023/01/28 01:01:32;;;;;;;;;;;;;;;11.45;33.19;98512.31;5054388;28;19921;-83
2023/01/28 01:04:04;;;;;;;;;;;;;;;13.26;29.88;98512.22;5054112;28;19921;-83
2023/01/28 01:06:38;;;;;;;;;;;;;;;13.55;29.34;98509.09;5053287;28;19921;-83
2023/01/28 01:09:05;;;;;;;;;;;;;;;13.17;30.28;98508.81;5051266;28;19921;-83
2023/01/28 01:11:31;;;;;;;;;;;;;;;14.59;28.11;98513.28;5051880;28;19924;-83
2023/01/28 01:13:58;;;;;;;;;;;;;;;13.27;29.93;98513.84;5052135;28;19917;-83
2023/01/28 01:16:25;;;;;;;;;;;;;;;13.03;30.33;98513.88;5054014;28;19916;-83
2023/01/28 01:18:52;;;;;;;;;;;;;;;13.75;28.99;98516.34;5044507;28;19990;-83
2023/01/28 01:21:19;;;;;;;;;;;;;;;13.71;29.14;98518.22;5042453;28;20299;-83
2023/01/28 01:23:45;;;;;;;;;;;;;;;11.64;32.08;98529.09;5046535;28;19921;-83
2023/01/28 01:26:12;;;;;;;;;;;;;;;13.36;29.80;98521.94;5043248;28;20020;-83
2023/01/28 01:28:38;;;;;;;;;;;;;;;14.05;29.06;98516.69;5059773;28;19923;-83
2023/01/28 01:31:05;;;;;;;;;;;;;;;14.03;28.79;98521.78;5057145;28;19920;-83
2023/01/28 01:33:32;;;;;;;;;;;;;;;12.83;30.68;98515.69;5055648;28;19960;-83
2023/01/28 01:35:58;;;;;;;;;;;;;;;13.55;29.67;98520.13;5052093;28;19974;-83
2023/01/28 01:38:24;;;;;;;;;;;;;;;12.73;30.84;98521.69;5044341;28;19921;-83
2023/01/28 01:40:50;;;;;;;;;;;;;;;14.36;28.52;98526.94;5049584;28;20262;-83
2023/01/28 01:43:17;;;;;;;;;;;;;;;13.12;30.34;98528.34;5047448;28;20441;-83
2023/01/28 01:45:46;;;;;;;;;;;;;;;13.26;30.05;98527.97;5053890;28;20316;-83
2023/01/28 01:48:27;;;;;;;;;;;;;;;13.93;29.21;98527.03;5042762;28;19921;-83
2023/01/28 01:50:55;;;;;;;;;;;;;;;11.75;32.30;98530.28;5053753;28;19917;-83
2023/01/28 01:53:22;;;;;;;;;;;;;;;12.24;31.90;98528.38;5051882;28;20023;-83
2023/01/28 01:55:49;;;;;;;;;;;;;;;12.45;31.35;98526.31;5059113;28;19962;-83
2023/01/28 01:58:17;;;;;;;;;;;;;;;13.22;30.16;98538.91;5054562;28;19921;-83
2023/01/28 02:00:43;;;;;;;;;;;;;;;12.12;32.11;98540.19;5050248;28;19927;-83
2023/01/28 02:03:10;;;;;;;;;;;;;;;14.68;28.00;98533.25;5050807;28;19924;-83
2023/01/28 02:05:37;;;;;;;;;;;;;;;15.00;27.74;98540.28;5049822;28;19924;-83
2023/01/28 02:08:22;;;;;;;;;;;;;;;14.06;28.61;98534.06;5047987;28;19921;-83
2023/01/28 02:10:51;;;;;;;;;;;;;;;14.48;27.95;98529.63;5050243;28;19924;-83
2023/01/28 02:13:20;;;;;;;;;;;;;;;13.54;29.57;98537.03;5046415;28;19966;-83
2023/01/28 02:15:46;;;;;;;;;;;;;;;15.70;26.49;98535.41;5041740;28;19920;-83
2023/01/28 02:18:12;;;;;;;;;;;;;;;15.98;26.08;98527.63;5038463;28;19928;-83
2023/01/28 02:20:57;;;;;;;;;;;;;;;12.82;30.71;98544.38;5048982;28;19917;-83
2023/01/28 02:23:34;;;;;;;;;;;;;;;11.99;32.32;98546.03;5039868;28;19928;-83
2023/01/28 02:26:00;;;;;;;;;;;;;;;14.11;28.87;98533.81;5043183;28;20054;-83
2023/01/28 02:28:31;;;;;;;;;;;;;;;16.64;25.37;98531.91;5048177;28;20015;-83
2023/01/28 02:30:59;;;;;;;;;;;;;;;15.03;27.60;98547.81;5047114;28;19916;-83
2023/01/28 02:33:33;;;;;;;;;;;;;;;12.13;31.75;98549.25;5037636;28;19929;-83
2023/01/28 02:36:04;;;;;;;;;;;;;;;12.47;31.67;98548.78;5049683;28;19929;-83
2023/01/28 02:38:32;;;;;;;;;;;;;;;13.28;30.13;98545.75;5050312;28;20265;-83
2023/01/28 02:41:04;;;;;;;;;;;;;;;14.25;29.18;98539.69;5045330;28;19916;-83
2023/01/28 02:43:30;;;;;;;;;;;;;;;17.19;24.83;98534.66;5045841;28;20377;-83
2023/01/28 02:48:42;;;;;;;;;;;;;;;14.77;27.46;98542.91;5040657;28;19927;-83
2023/01/28 02:51:21;;;;;;;;;;;;;;;11.60;32.10;98545.44;5046661;28;19923;-83
2023/01/28 02:53:56;;;;;;;;;;;;;;;11.73;32.62;98538.88;5044130;28;19921;-83
2023/01/28 02:56:28;;;;;;;;;;;;;;;12.53;31.51;98549.38;5047676;28;19925;-83
2023/01/28 02:59:29;;;;;;;;;;;;;;;13.58;29.68;98546.22;5043389;28;19956;-83
2023/01/28 03:01:57;;;;;;;;;;;;;;;13.29;29.61;98543.81;5051664;28;19925;-83
2023/01/28 03:04:28;;;;;;;;;;;;;;;14.00;29.02;98541.84;5050588;28;20381;-83
2023/01/28 03:06:56;;;;;;;;;;;;;;;14.54;28.28;98541.97;5054009;28;20431;-83
2023/01/28 03:09:25;;;;;;;;;;;;;;;14.80;27.99;98544.16;5046239;28;20377;-83
2023/01/28 03:36:49;;;;;;;;;;;;;;;14.92;27.34;98533.78;5054068;28;19974;-83
2023/01/28 03:39:16;;;;;;;;;;;;;;;14.46;28.40;98535.50;5051968;28;20372;-83
2023/01/28 03:41:54;;;;;;;;;;;;;;;14.19;28.55;98539.13;5047735;28;20059;-83
2023/01/28 03:47:06;;;;;;;;;;;;;;;15.21;27.51;98538.78;5056399;28;20031;-83
2023/01/28 03:49:32;;;;;;;;;;;;;;;15.69;26.61;98531.84;5075060;28;19917;-83
2023/01/28 03:51:58;;;;;;;;;;;;;;;14.04;28.45;98536.38;5035683;28;19924;-83
2023/01/28 03:54:24;;;;;;;;;;;;;;;12.95;30.33;98548.69;5044408;28;19921;-83
2023/01/28 03:56:50;;;;;;;;;;;;;;;12.70;30.70;98551.84;5053521;28;19921;-83
2023/01/28 03:59:16;;;;;;;;;;;;;;;11.71;32.36;98549.44;5037159;28;19917;-83
2023/01/28 04:01:42;;;;;;;;;;;;;;;12.92;30.44;98548.59;5048835;28;19933;-83
2023/01/28 04:04:21;;;;;;;;;;;;;;;13.32;29.84;98545.88;5044571;28;19971;-83
2023/01/28 04:06:48;;;;;;;;;;;;;;;13.44;29.48;98546.59;5044365;28;19917;-83
2023/01/28 04:09:14;;;;;;;;;;;;;;;13.32;29.98;98548.63;5052928;28;20011;-82
2023/01/28 04:11:40;;;;;;;;;;;;;;;12.15;31.67;98552.47;5068928;28;19967;-83
2023/01/28 04:14:06;;;;;;;;;;;;;;;12.20;31.92;98557.75;5052513;28;20377;-82
2023/01/28 04:16:32;;;;;;;;;;;;;;;11.62;32.52;98550.63;5052771;28;19935;-83
2023/01/28 04:18:58;;;;;;;;;;;;;;;10.79;33.89;98563.63;5055781;28;20007;-83
2023/01/28 04:21:24;;;;;;;;;;;;;;;10.58;34.66;98560.88;5049929;28;20025;-83
2023/01/28 04:23:50;;;;;;;;;;;;;;;11.88;32.05;98553.91;5055486;28;20426;-83
2023/01/28 04:26:16;;;;;;;;;;;;;;;12.10;31.76;98555.44;5055058;28;19916;-83
2023/01/28 04:28:42;;;;;;;;;;;;;;;13.46;30.04;98557.31;5054900;28;19923;-83
2023/01/28 04:31:08;;;;;;;;;;;;;;;11.54;32.65;98562.50;5055034;28;19924;-83
2023/01/28 04:33:34;;;;;;;;;;;;;;;12.83;30.49;98564.47;5051972;28;19925;-83
2023/01/28 04:36:00;;;;;;;;;;;;;;;14.42;28.43;98553.94;5041849;28;20018;-83
2023/01/28 04:38:26;;;;;;;;;;;;;;;14.80;27.66;98564.31;5040448;28;19921;-83
2023/01/28 04:40:53;;;;;;;;;;;;;;;17.05;24.72;98555.84;5049858;28;20007;-83
2023/01/28 04:43:19;;;;;;;;;;;;;;;13.06;29.37;98571.91;5043800;28;20392;-83
2023/01/28 04:45:46;;;;;;;;;;;;;;;12.51;31.02;98573.69;5069545;28;20751;-83
2023/01/28 04:48:13;;;;;;;;;;;;;;;12.27;31.28;98583.56;5056533;28;19939;-83
2023/01/28 04:50:39;;;;;;;;;;;;;;;13.05;30.09;98574.97;5045123;28;19939;-83
2023/01/28 04:53:05;;;;;;;;;;;;;;;14.06;28.84;98575.47;5061298;28;19970;-83
2023/01/28 04:55:31;;;;;;;;;;;;;;;17.22;24.32;98564.41;5053303;28;20338;-83
2023/01/28 04:57:57;;;;;;;;;;;;;;;17.51;24.05;98567.53;5069093;28;20387;-83
2023/01/28 05:00:23;;;;;;;;;;;;;;;18.05;23.34;98561.44;5049409;28;19920;-83
2023/01/28 05:02:49;;;;;;;;;;;;;;;18.53;22.79;98549.19;5049441;28;19931;-83
2023/01/28 05:05:16;;;;;;;;;;;;;;;17.95;23.55;98566.50;5052695;28;19925;-83
2023/01/28 05:07:42;;;;;;;;;;;;;;;16.39;25.16;98562.75;5040957;28;19917;-83
2023/01/28 05:10:08;;;;;;;;;;;;;;;14.10;28.27;98568.88;5056515;28;19921;-83
2023/01/28 05:12:34;;;;;;;;;;;;;;;17.26;24.33;98575.56;5043617;28;19921;-83
2023/01/28 05:15:00;;;;;;;;;;;;;;;17.44;23.63;98570.25;5051099;28;19925;-83
2023/01/28 05:17:27;;;;;;;;;;;;;;;15.39;26.54;98579.81;5054149;28;20423;-83
2023/01/28 05:19:53;;;;;;;;;;;;;;;16.96;24.50;98566.44;5049918;28;19924;-83
2023/01/28 05:22:19;;;;;;;;;;;;;;;17.48;23.80;98571.09;5043346;28;19925;-83
2023/01/28 05:24:45;;;;;;;;;;;;;;;17.14;24.22;98579.38;5037728;28;19974;-83
2023/01/28 05:27:11;;;;;;;;;;;;;;;18.54;22.65;98587.75;5049086;28;19921;-83
2023/01/28 05:29:37;;;;;;;;;;;;;;;15.72;25.77;98588.44;5047128;28;20265;-83
2023/01/28 05:32:03;;;;;;;;;;;;;;;16.14;25.47;98589.22;5053024;28;19942;-83
2023/01/28 05:34:29;;;;;;;;;;;;;;;13.96;28.45;98603.59;5052968;28;19928;-83
2023/01/28 05:36:55;;;;;;;;;;;;;;;14.20;27.91;98593.22;5044910;28;19999;-83
2023/01/28 05:39:21;;;;;;;;;;;;;;;12.70;30.30;98595.94;5052780;28;19921;-83
2023/01/28 05:41:47;;;;;;;;;;;;;;;11.81;31.63;98603.19;5038619;28;19917;-84
2023/01/28 05:44:13;;;;;;;;;;;;;;;12.99;29.66;98602.00;5048777;28;19920;-83
2023/01/28 05:46:44;;;;;;;;;;;;;;;13.67;29.20;98602.03;5043586;28;20380;-83
2023/01/28 05:49:12;;;;;;;;;;;;;;;12.62;30.49;98600.44;5047432;28;20300;-83
2023/01/28 05:51:38;;;;;;;;;;;;;;;12.63;30.67;98612.22;5045321;28;19921;-83
2023/01/28 05:54:05;;;;;;;;;;;;;;;11.60;32.26;98605.94;5051319;28;20011;-84
2023/01/28 05:56:31;;;;;;;;;;;;;;;12.40;30.87;98607.19;5047935;28;19927;-83
2023/01/28 05:58:57;;;;;;;;;;;;;;;14.19;28.01;98602.66;5045254;28;19921;-83
2023/01/28 06:01:23;;;;;;;;;;;;;;;12.68;29.86;98607.31;5043962;28;20284;-84
2023/01/28 06:03:49;;;;;;;;;;;;;;;12.64;30.63;98611.91;5044420;28;19925;-83
2023/01/28 06:06:15;;;;;;;;;;;;;;;14.49;27.94;98612.13;5041355;28;19916;-83
2023/01/28 06:08:41;;;;;;;;;;;;;;;15.28;26.77;98618.34;5043366;28;19928;-84
2023/01/28 06:11:07;;;;;;;;;;;;;;;15.37;26.25;98615.34;5043689;28;19991;-83
2023/01/28 06:13:33;;;;;;;;;;;;;;;14.14;27.83;98619.47;5052650;28;19992;-83
2023/01/28 06:15:59;;;;;;;;;;;;;;;14.01;28.37;98625.41;5044656;28;19989;-83
2023/01/28 06:18:25;;;;;;;;;;;;;;;14.68;27.21;98627.19;5038625;28;19944;-83
2023/01/28 06:20:51;;;;;;;;;;;;;;;16.82;24.65;98624.47;5037893;28;20407;-83
2023/01/28 06:23:17;;;;;;;;;;;;;;;15.47;26.16;98637.75;5047587;28;19928;-83
2023/01/28 06:25:43;;;;;;;;;;;;;;;14.68;26.81;98646.53;5047619;28;19921;-83
2023/01/28 06:28:09;;;;;;;;;;;;;;;14.36;27.35;98634.66;5043719;28;19950;-83
2023/01/28 06:30:35;;;;;;;;;;;;;;;13.93;27.98;98648.47;5043600;28;19921;-84
2023/01/28 06:33:01;;;;;;;;;;;;;;;14.86;27.01;98650.53;5050546;28;19929;-83
2023/01/28 06:35:27;;;;;;;;;;;;;;;13.70;28.47;98648.22;5049191;28;19928;-84
2023/01/28 06:37:53;;;;;;;;;;;;;;;13.28;29.19;98660.78;5044700;28;19925;-85
2023/01/28 06:40:21;;;;;;;;;;;;;;;14.30;27.63;98655.44;5045672;28;20410;-85
2023/01/28 06:42:48;;;;;;;;;;;;;;;14.16;27.64;98661.34;5049606;28;19920;-85
2023/01/28 06:45:14;;;;;;;;;;;;;;;14.53;27.17;98665.53;5049976;28;19966;-83
2023/01/28 06:47:40;;;;;;;;;;;;;;;15.32;26.30;98662.66;5048462;28;20027;-82
2023/01/28 06:50:06;;;;;;;;;;;;;;;17.11;24.08;98660.56;5050090;28;20392;-81
2023/01/28 06:52:32;;;;;;;;;;;;;;;15.28;26.10;98668.13;5048395;28;20304;-82
2023/01/28 06:54:58;;;;;;;;;;;;;;;14.73;27.06;98668.34;5051905;28;19952;-82
2023/01/28 06:57:24;;;;;;;;;;;;;;;14.72;26.88;98672.28;5049566;28;20365;-82
2023/01/28 06:59:50;;;;;;;;;;;;;;;15.31;26.39;98678.44;5049327;28;19927;-84
2023/01/28 07:02:16;;;;;;;;;;;;;;;13.92;28.19;98678.03;5048676;28;20006;-82
2023/01/28 07:04:42;;;;;;;;;;;;;;;13.68;28.51;98683.63;5048967;28;19959;-84
2023/01/28 07:07:08;;;;;;;;;;;;;;;13.90;28.35;98676.78;5048502;28;19924;-83
2023/01/28 07:09:34;;;;;;;;;;;;;;;13.33;29.36;98690.84;5051923;28;19929;-87
2023/01/28 07:12:04;;;;;;;;;;;;;;;15.09;26.97;98682.69;5049087;28;19921;-93
2023/01/28 07:14:30;;;;;;;;;;;;;;;12.96;29.73;98684.53;5050160;28;19955;-95
2023/01/28 07:16:56;;;;;;;;;;;;;;;13.67;28.76;98690.31;5048694;28;20362;-86
2023/01/28 07:19:22;;;;;;;;;;;;;;;13.21;29.47;98690.88;5053123;28;20011;-86
2023/01/28 07:21:48;;;;;;;;;;;;;;;15.28;26.74;98692.22;5051025;28;20181;-85
2023/01/28 07:24:14;;;;;;;;;;;;;;;15.39;25.82;98694.06;5045813;28;19934;-83
2023/01/28 07:26:40;;;;;;;;;;;;;;;16.65;24.69;98697.84;5049483;28;19933;-86
2023/01/28 07:29:07;;;;;;;;;;;;;;;17.75;23.49;98700.38;5046381;28;19990;-84
2023/01/28 07:31:33;;;;;;;;;;;;;;;17.06;23.62;98690.63;5046482;28;19925;-83
2023/01/28 07:33:59;;;;;;;;;;;;;;;17.89;23.27;98697.78;5054118;28;19925;-83
2023/01/28 07:36:25;;;;;;;;;;;;;;;14.99;26.77;98705.34;5050212;28;19964;-83
2023/01/28 07:38:51;;;;;;;;;;;;;;;16.02;25.46;98705.72;5053875;28;19975;-90
2023/01/28 07:41:17;;;;;;;;;;;;;;;15.38;26.58;98711.03;5049401;28;20011;-81
2023/01/28 07:43:43;;;;;;;;;;;;;;;14.26;28.15;98707.00;5050432;28;19920;-81
2023/01/28 07:46:09;;;;;;;;;;;;;;;14.62;27.78;98705.97;5047232;28;20403;-82
2023/01/28 07:48:35;;;;;;;;;;;;;;;13.56;28.78;98714.03;5052276;28;20430;-83
2023/01/28 07:51:01;;;;;;;;;;;;;;;14.06;28.33;98708.78;5049782;28;19932;-82
2023/01/28 07:53:27;;;;;;;;;;;;;;;13.06;29.70;98715.25;5047248;28;19966;-84
2023/01/28 07:56:00;;;;;;;;;;;;;;;11.77;31.28;98718.59;5045864;28;19979;-80
2023/01/28 07:58:26;;;;;;;;;;;;;;;12.02;31.59;98715.94;5048742;28;20292;-87
2023/01/28 08:00:55;;;;;;;;;;;;;;;13.30;29.77;98711.69;5047952;28;19928;-86
2023/01/28 08:03:21;;;;;;;;;;;;;;;12.29;31.15;98705.16;5047434;28;19924;-83
2023/01/28 08:05:48;;;;;;;;;;;;;;;11.03;33.31;98717.63;5049226;28;20060;-84
2023/01/28 08:08:15;;;;;;;;;;;;;;;12.91;30.59;98712.31;5046724;28;19921;-81
2023/01/28 08:10:42;;;;;;;;;;;;;;;13.12;29.94;98700.06;5049718;28;19973;-83
2023/01/28 08:13:09;;;;;;;;;;;;;;;12.94;30.75;98711.66;5047397;28;19979;-82
2023/01/28 08:15:35;;;;;;;;;;;;;;;12.23;31.43;98711.19;5043521;28;19966;-82
2023/01/28 08:18:02;;;;;;;;;;;;;;;13.49;29.68;98714.59;5044767;28;19921;-84
2023/01/28 08:20:29;;;;;;;;;;;;;;;13.31;30.00;98710.50;5042764;28;19926;-85
2023/01/28 08:23:05;;;;;;;;;;;;;;;12.53;31.12;98709.09;5046530;28;19923;-84
2023/01/28 08:25:32;;;;;;;;;;;;;;;13.12;30.33;98716.63;5049743;28;19956;-84
2023/01/28 08:27:57;;;;;;;;;;;;;;;11.48;33.05;98726.84;5051082;28;19920;-83
2023/01/28 08:30:23;;;;;;;;;;;;;;;11.57;33.19;98732.31;5048529;28;19924;-85
2023/01/28 08:32:49;;;;;;;;;;;;;;;12.22;32.05;98723.34;5052529;28;20408;-83
2023/01/28 08:35:16;;;;;;;;;;;;;;;13.04;30.83;98727.72;5051424;28;19924;-84
2023/01/28 08:37:42;;;;;;;;;;;;;;;12.92;30.81;98720.28;5047043;28;20443;-84
2023/01/28 08:40:08;;;;;;;;;;;;;;;12.75;30.81;98722.41;5043641;28;20008;-84
2023/01/28 08:42:34;;;;;;;;;;;;;;;11.60;32.48;98735.19;5047475;28;20016;-84
2023/01/28 08:45:00;;;;;;;;;;;;;;;11.41;32.95;98737.59;5046785;28;20015;-84
2023/01/28 08:47:26;;;;;;;;;;;;;;;12.38;31.68;98725.13;5040913;28;20003;-84
2023/01/28 08:49:52;;;;;;;;;;;;;;;11.08;33.39;98731.97;5043038;28;20011;-84
2023/01/28 08:52:18;;;;;;;;;;;;;;;13.05;30.74;98734.84;5051745;28;20011;-84
2023/01/28 08:54:44;;;;;;;;;;;;;;;15.54;26.88;98731.19;5053999;28;19917;-83
2023/01/28 08:57:10;;;;;;;;;;;;;;;12.99;30.13;98736.22;5052783;28;19921;-83
2023/01/28 08:59:43;;;;;;;;;;;;;;;11.64;32.69;98740.84;5052908;28;19920;-84
2023/01/28 09:02:11;;;;;;;;;;;;;;;11.20;33.74;98742.28;5049156;28;19936;-84
2023/01/28 09:04:37;;;;;;;;;;;;;;;12.07;32.22;98754.25;5046206;28;20031;-83
2023/01/28 09:07:03;;;;;;;;;;;;;;;11.40;32.29;98755.22;5045826;28;19981;-85
2023/01/28 09:09:30;;;;;;;;;;;;;;;12.36;31.12;98749.44;5040676;28;19976;-85
2023/01/28 09:11:56;;;;;;;;;;;;;;;13.18;30.18;98741.19;5049915;28;19944;-84
2023/01/28 09:14:22;;;;;;;;;;;;;;;13.51;29.40;98739.09;5043462;28;20395;-85
2023/01/28 09:16:48;;;;;;;;;;;;;;;11.68;31.58;98750.03;5050542;28;19928;-84
2023/01/28 09:19:14;;;;;;;;;;;;;;;10.64;34.36;98748.97;5042502;28;19921;-85
2023/01/28 09:21:40;;;;;;;;;;;;;;;11.35;33.33;98751.84;5036979;28;19925;-83
2023/01/28 09:24:09;;;;;;;;;;;;;;;12.13;31.84;98748.22;5049235;28;19921;-85
2023/01/28 09:26:36;;;;;;;;;;;;;;;11.24;32.21;98750.63;5049014;28;19928;-84
2023/01/28 09:29:02;;;;;;;;;;;;;;;9.93;35.62;98750.56;5048444;28;19921;-86
2023/01/28 09:31:29;;;;;;;;;;;;;;;9.86;35.70;98754.91;5050748;28;19932;-84
2023/01/28 09:33:56;;;;;;;;;;;;;;;10.63;34.59;98757.53;5040676;28;19921;-84
2023/01/28 09:36:22;;;;;;;;;;;;;;;10.74;34.03;98753.28;5045935;28;19924;-81
2023/01/28 09:38:48;;;;;;;;;;;;;;;11.35;33.50;98755.41;5044775;28;20047;-85
2023/01/28 09:41:23;;;;;;;;;;;;;;;11.28;33.56;98748.81;5044113;28;20372;-85
2023/01/28 09:43:58;;;;;;;;;;;;;;;11.56;32.69;98753.50;5048469;28;19924;-84
2023/01/28 09:46:29;;;;;;;;;;;;;;;11.12;32.94;98748.59;5053320;28;19920;-84
2023/01/28 09:48:57;;;;;;;;;;;;;;;10.38;34.08;98751.78;5041844;28;19923;-84
2023/01/28 09:51:32;;;;;;;;;;;;;;;9.43;35.75;98763.09;5052903;28;19916;-84
2023/01/28 09:54:02;;;;;;;;;;;;;;;10.64;33.33;98751.72;5039691;28;19921;-84
2023/01/28 09:56:31;;;;;;;;;;;;;;;12.31;31.42;98757.09;5042724;28;20015;-88
2023/01/28 09:59:17;;;;;;;;;;;;;;;11.99;31.84;98757.88;5054459;28;20331;-85
2023/01/28 10:01:59;;;;;;;;;;;;;;;10.88;32.93;98754.69;5057060;28;19991;-84
2023/01/28 10:04:24;;;;;;;;;;;;;;;9.67;35.27;98763.44;5038730;28;19928;-84
2023/01/28 10:06:53;;;;;;;;;;;;;;;9.30;35.94;98761.31;5047489;28;19921;-84
2023/01/28 10:09:41;;;;;;;;;;;;;;;9.86;35.51;98754.91;5044120;28;19924;-87
2023/01/28 10:12:13;;;;;;;;;;;;;;;11.44;32.68;98745.16;5040567;28;20024;-85
2023/01/28 10:14:48;;;;;;;;;;;;;;;11.13;32.52;98751.00;5039939;28;19916;-84
2023/01/28 10:17:46;;;;;;;;;;;;;;;11.07;33.66;98746.84;5042837;28;20100;-84
2023/01/28 10:20:12;;;;;;;;;;;;;;;10.92;33.30;98754.84;5052735;28;20035;-87
2023/01/28 10:22:45;;;;;;;;;;;;;;;11.32;33.47;98753.31;5051056;28;20015;-86
2023/01/28 10:25:21;;;;;;;;;;;;;;;10.41;34.66;98753.06;5052482;28;19921;-86
2023/01/28 10:27:49;;;;;;;;;;;;;;;10.56;34.73;98746.25;5053677;28;19916;-86
2023/01/28 10:30:24;;;;;;;;;;;;;;;10.81;34.44;98748.09;5055471;28;19966;-87
2023/01/28 10:32:52;;;;;;;;;;;;;;;11.10;34.05;98751.69;5054602;28;19928;-86
2023/01/28 10:35:18;;;;;;;;;;;;;;;12.81;30.78;98743.88;5045653;28;19929;-86
2023/01/28 10:37:45;;;;;;;;;;;;;;;12.80;30.77;98730.47;5045896;28;19921;-87
2023/01/28 10:40:17;;;;;;;;;;;;;;;14.40;29.04;98730.28;5049114;28;19921;-86
2023/01/28 10:42:44;;;;;;;;;;;;;;;12.01;31.81;98737.16;5048355;28;19956;-83
2023/01/28 10:45:16;;;;;;;;;;;;;;;11.82;32.58;98738.78;5051134;28;19947;-82
2023/01/28 10:48:00;;;;;;;;;;;;;;;13.60;29.76;98731.50;5047115;28;19921;-82
2023/01/28 10:50:27;;;;;;;;;;;;;;;15.17;28.12;98733.44;5045752;28;20384;-84
2023/01/28 10:52:58;;;;;;;;;;;;;;;12.92;30.63;98728.53;5051345;28;19927;-83
2023/01/28 10:55:27;;;;;;;;;;;;;;;12.40;32.10;98730.28;5040793;28;20300;-84
2023/01/28 10:57:54;;;;;;;;;;;;;;;13.50;30.08;98727.25;5047838;28;19947;-84
2023/01/28 11:00:25;;;;;;;;;;;;;;;12.94;30.83;98722.66;5046348;28;19948;-84
2023/01/28 11:02:52;;;;;;;;;;;;;;;13.63;29.97;98720.53;5043459;28;19932;-86
2023/01/28 11:05:20;;;;;;;;;;;;;;;14.36;28.71;98725.81;5047798;28;20388;-86
2023/01/28 11:07:50;;;;;;;;;;;;;;;13.71;29.78;98727.09;5040142;28;19925;-83
2023/01/28 11:10:31;;;;;;;;;;;;;;;14.27;28.70;98725.97;5050225;28;19935;-83
2023/01/28 11:12:57;;;;;;;;;;;;;;;13.81;29.15;98732.13;5046501;28;19963;-83
2023/01/28 11:15:23;;;;;;;;;;;;;;;13.68;29.66;98725.03;5048160;28;20361;-84
2023/01/28 11:17:54;;;;;;;;;;;;;;;12.34;32.18;98729.72;5054402;28;19984;-84
2023/01/28 11:20:22;;;;;;;;;;;;;;;13.57;29.88;98721.94;5046277;28;19924;-83
2023/01/28 11:22:49;;;;;;;;;;;;;;;13.91;29.33;98726.09;5051202;28;19935;-86
2023/01/28 11:25:17;;;;;;;;;;;;;;;14.89;27.87;98727.22;5046747;28;19921;-84
2023/01/28 11:27:46;;;;;;;;;;;;;;;13.97;29.28;98729.41;5049694;28;19920;-84
2023/01/28 11:30:21;;;;;;;;;;;;;;;15.23;26.72;98727.28;5044807;28;19932;-84
2023/01/28 11:32:59;;;;;;;;;;;;;;;13.31;30.02;98729.00;5049746;28;19925;-85
2023/01/28 11:35:27;;;;;;;;;;;;;;;12.71;31.40;98730.59;5047469;28;19928;-84
2023/01/28 11:37:54;;;;;;;;;;;;;;;12.23;30.37;98725.75;5050430;28;20338;-84
2023/01/28 11:40:20;;;;;;;;;;;;;;;11.68;32.92;98731.59;5047074;28;19925;-84
2023/01/28 11:42:47;;;;;;;;;;;;;;;13.82;29.39;98719.91;5046782;28;19921;-84
2023/01/28 11:45:18;;;;;;;;;;;;;;;14.77;28.17;98716.25;5054818;28;20276;-84
2023/01/28 11:47:59;;;;;;;;;;;;;;;16.59;25.80;98708.44;5053030;28;19928;-84
2023/01/28 11:50:52;;;;;;;;;;;;;;;13.75;29.57;98709.47;5047710;28;19940;-84
2023/01/28 11:53:18;;;;;;;;;;;;;;;12.45;31.79;98713.53;5049536;28;19928;-84
2023/01/28 11:55:51;;;;;;;;;;;;;;;12.75;31.24;98714.97;5050109;28;19920;-84
2023/01/28 11:58:25;;;;;;;;;;;;;;;14.03;29.88;98706.72;5044872;28;20063;-84
2023/01/28 12:01:13;;;;;;;;;;;;;;;14.23;28.78;98714.03;5050104;28;20441;-84
2023/01/28 12:03:50;;;;;;;;;;;;;;;12.98;30.81;98721.63;5050768;28;19924;-84
2023/01/28 12:06:19;;;;;;;;;;;;;;;13.29;30.93;98720.28;5046221;28;19928;-84
2023/01/28 12:08:45;;;;;;;;;;;;;;;15.12;27.59;98717.91;5054236;28;20080;-84
2023/01/28 12:11:17;;;;;;;;;;;;;;;17.15;24.86;98708.59;5051737;28;19972;-84
2023/01/28 12:14:06;;;;;;;;;;;;;;;15.46;26.99;98710.03;5051247;28;19921;-84
2023/01/28 12:16:49;;;;;;;;;;;;;;;14.08;28.96;98716.72;5044677;28;19944;-84
2023/01/28 12:19:32;;;;;;;;;;;;;;;12.68;31.55;98714.72;5046695;28;19924;-84
2023/01/28 12:22:14;;;;;;;;;;;;;;;12.34;31.94;98721.44;5047646;28;19921;-84
2023/01/28 12:25:03;;;;;;;;;;;;;;;13.70;30.00;98714.44;5052383;28;20334;-83
2023/01/28 12:27:32;;;;;;;;;;;;;;;13.02;30.25;98719.00;5033024;28;19921;-84
2023/01/28 12:30:19;;;;;;;;;;;;;;;14.61;28.01;98713.47;5051354;28;19983;-84
2023/01/28 12:33:03;;;;;;;;;;;;;;;15.13;27.45;98718.72;5052411;28;20335;-83
2023/01/28 12:35:36;;;;;;;;;;;;;;;17.16;24.89;98704.66;5051428;28;19933;-84
2023/01/28 12:38:15;;;;;;;;;;;;;;;15.24;26.75;98728.88;5048920;28;19932;-83
2023/01/28 12:40:52;;;;;;;;;;;;;;;16.03;25.70;98720.38;5050135;28;20019;-83
2023/01/28 12:43:24;;;;;;;;;;;;;;;14.36;28.03;98723.88;5047138;28;19916;-84
2023/01/28 12:45:56;;;;;;;;;;;;;;;11.94;32.36;98731.38;5047736;28;19925;-84
2023/01/28 12:48:27;;;;;;;;;;;;;;;12.47;31.81;98736.03;5051328;28;19921;-84
2023/01/28 12:50:59;;;;;;;;;;;;;;;13.87;28.92;98730.72;5052538;28;19931;-83
2023/01/28 12:53:31;;;;;;;;;;;;;;;14.39;28.08;98716.84;5051867;28;19951;-84
2023/01/28 12:56:35;;;;;;;;;;;;;;;16.84;25.18;98710.84;5043988;28;20391;-83
2023/01/28 12:59:01;;;;;;;;;;;;;;;17.67;23.75;98713.38;5026398;28;19975;-83
2023/01/28 13:01:33;;;;;;;;;;;;;;;16.18;25.93;98723.06;5029126;28;19925;-83
2023/01/28 13:04:04;;;;;;;;;;;;;;;16.33;25.54;98715.84;5034706;28;19933;-83
2023/01/28 13:06:34;;;;;;;;;;;;;;;16.28;25.59;98727.22;5044801;28;19924;-83
2023/01/28 13:09:11;;;;;;;;;;;;;;;17.88;23.36;98727.53;5044330;28;19925;-83
2023/01/28 13:11:37;;;;;;;;;;;;;;;15.51;26.29;98729.94;5050407;28;19921;-83
2023/01/28 13:14:04;;;;;;;;;;;;;;;17.56;23.94;98725.50;5051502;28;20277;-83
2023/01/28 13:16:30;;;;;;;;;;;;;;;17.41;23.78;98726.44;5043235;28;20466;-83
2023/01/28 13:19:04;;;;;;;;;;;;;;;18.09;23.20;98727.00;5044754;28;19978;-83
2023/01/28 13:21:32;;;;;;;;;;;;;;;16.77;24.68;98730.94;5049127;28;19965;-83
2023/01/28 13:24:01;;;;;;;;;;;;;;;16.93;24.27;98730.81;5050934;28;19925;-83
2023/01/28 13:26:45;;;;;;;;;;;;;;;17.58;23.48;98746.16;5047893;28;19924;-86